Time;durP1;ratioP1;P1;durP2;ratioP2;P2;SDS_P1;SDS_P2;PMS_P1;PMS_P2;Temp;Humidity;BMP_temperature;BMP_pressure;BME280_temperature;BME280_humidity;BME280_pressure;Samples;Min_cycle;Max_cycle;Signal;HPM_P1;HPM_P2
2022/12/28 00:01:25;;;;;;;6.80;4.10;;;8.00;61.80;;;;;;4993998;28;20190;-56
2022/12/28 00:03:52;;;;;;;7.03;4.47;;;7.90;62.30;;;;;;4993438;28;20460;-57
2022/12/28 00:06:20;;;;;;;7.53;4.40;;;8.00;61.90;;;;;;4992050;28;20485;-57
2022/12/28 00:08:46;;;;;;;4.93;4.43;;;7.90;62.30;;;;;;4993722;28;20426;-57
2022/12/28 00:11:17;;;;;;;6.90;5.03;;;7.90;62.80;;;;;;4994019;28;20909;-57
2022/12/28 00:13:43;;;;;;;5.60;4.87;;;8.10;62.40;;;;;;4993197;28;20190;-57
2022/12/28 00:16:19;;;;;;;7.20;5.50;;;8.10;61.70;;;;;;4993108;28;20913;-57
2022/12/28 00:18:44;;;;;;;7.17;4.00;;;8.00;61.80;;;;;;4993353;28;20545;-57
2022/12/28 00:21:10;;;;;;;8.13;5.50;;;8.00;62.00;;;;;;4993601;28;20433;-57
2022/12/28 00:23:36;;;;;;;5.33;4.80;;;8.10;62.10;;;;;;4992930;28;20222;-57
2022/12/28 00:26:10;;;;;;;7.97;5.20;;;8.10;61.80;;;;;;4993155;28;20226;-57
2022/12/28 00:28:35;;;;;;;7.80;5.47;;;7.80;62.20;;;;;;4993266;28;20208;-56
2022/12/28 00:31:01;;;;;;;5.83;4.70;;;7.70;62.50;;;;;;4992906;28;20421;-57
2022/12/28 00:33:27;;;;;;;7.60;4.37;;;7.60;63.30;;;;;;4991793;28;20226;-57
2022/12/28 00:35:54;;;;;;;5.70;4.60;;;7.50;63.80;;;;;;4993313;28;20195;-57
2022/12/28 00:38:20;;;;;;;4.97;4.47;;;7.60;64.00;;;;;;4993134;28;20256;-57
2022/12/28 00:40:45;;;;;;;10.50;4.67;;;7.60;63.90;;;;;;4992974;28;20426;-57
2022/12/28 00:43:11;;;;;;;7.87;5.10;;;7.50;64.00;;;;;;4992640;28;20225;-57
2022/12/28 00:45:37;;;;;;;7.00;5.17;;;7.50;64.40;;;;;;4992995;28;20206;-57
2022/12/28 00:48:03;;;;;;;6.70;4.90;;;7.30;65.30;;;;;;4992945;28;20205;-57
2022/12/28 00:50:28;;;;;;;7.17;5.10;;;7.40;65.20;;;;;;4992923;28;20261;-57
2022/12/28 00:52:54;;;;;;;6.43;4.90;;;7.60;64.40;;;;;;4992719;28;20413;-57
2022/12/28 00:55:19;;;;;;;10.93;5.43;;;7.50;64.20;;;;;;4992464;28;20186;-57
2022/12/28 00:57:45;;;;;;;7.60;5.20;;;7.50;64.60;;;;;;4991658;28;20620;-57
2022/12/28 01:00:11;;;;;;;8.30;4.80;;;7.50;64.10;;;;;;4992637;28;20310;-57
2022/12/28 01:02:37;;;;;;;6.10;4.17;;;7.40;64.50;;;;;;4992707;28;20195;-57
2022/12/28 01:05:03;;;;;;;4.80;4.10;;;7.50;64.60;;;;;;4992225;28;20802;-57
2022/12/28 01:07:28;;;;;;;4.90;3.77;;;7.40;64.60;;;;;;4992646;28;20232;-57
2022/12/28 01:09:54;;;;;;;5.43;4.07;;;7.20;65.20;;;;;;4992600;28;20425;-57
2022/12/28 01:12:19;;;;;;;5.77;3.80;;;7.20;65.60;;;;;;4992454;28;20247;-57
2022/12/28 01:14:45;;;;;;;3.87;3.47;;;7.10;66.10;;;;;;4992157;28;20198;-57
2022/12/28 01:17:11;;;;;;;3.53;3.17;;;7.30;65.80;;;;;;4992443;28;20639;-57
2022/12/28 01:19:36;;;;;;;4.67;4.07;;;7.40;65.50;;;;;;4992594;28;20191;-57
2022/12/28 01:22:02;;;;;;;5.13;3.97;;;7.50;64.60;;;;;;4979620;28;20309;-57
2022/12/28 01:24:27;;;;;;;5.50;3.80;;;7.70;63.80;;;;;;4990359;28;20189;-57
2022/12/28 01:26:53;;;;;;;5.40;4.20;;;7.90;63.30;;;;;;4992279;28;20284;-57
2022/12/28 01:29:18;;;;;;;5.13;4.67;;;8.00;62.20;;;;;;4991748;28;20634;-58
2022/12/28 01:31:44;;;;;;;5.70;4.20;;;8.10;61.20;;;;;;4992178;28;20195;-58
2022/12/28 01:34:09;;;;;;;5.87;3.57;;;8.20;60.70;;;;;;4991985;28;20195;-57
2022/12/28 01:36:35;;;;;;;4.40;3.40;;;8.20;60.70;;;;;;4992016;28;20560;-57
2022/12/28 01:39:04;;;;;;;6.50;5.13;;;8.00;60.90;;;;;;4992050;28;20191;-57
2022/12/28 01:41:30;;;;;;;5.40;3.83;;;8.20;60.50;;;;;;4991978;28;20194;-57
2022/12/28 01:43:56;;;;;;;9.43;4.00;;;7.90;60.30;;;;;;4991638;28;20430;-57
2022/12/28 01:46:42;;;;;;;4.30;3.90;;;7.90;60.90;;;;;;4992035;28;20665;-57
2022/12/28 01:49:10;;;;;;;5.03;3.70;;;7.90;60.90;;;;;;4992022;28;20269;-57
2022/12/28 01:52:01;;;;;;;3.70;3.40;;;7.80;60.80;;;;;;4990699;28;21018;-57
2022/12/28 01:54:29;;;;;;;5.37;3.67;;;7.70;61.90;;;;;;4984484;28;20525;-57
2022/12/28 01:56:56;;;;;;;3.77;3.37;;;7.80;61.60;;;;;;4992174;28;20433;-57
2022/12/28 01:59:27;;;;;;;5.90;3.17;;;7.60;61.70;;;;;;4992089;28;20840;-57
2022/12/28 02:01:53;;;;;;;4.80;3.33;;;7.60;61.90;;;;;;4992178;28;20430;-57
2022/12/28 02:04:19;;;;;;;4.40;3.90;;;7.80;61.90;;;;;;4991500;28;20846;-57
2022/12/28 02:06:45;;;;;;;3.40;2.80;;;7.90;60.90;;;;;;4991811;28;21020;-57
2022/12/28 02:09:18;;;;;;;3.80;3.30;;;7.90;61.10;;;;;;4992047;28;20240;-57
2022/12/28 02:11:44;;;;;;;5.17;3.80;;;8.10;60.70;;;;;;4991898;28;20537;-57
2022/12/28 02:14:12;;;;;;;4.90;3.60;;;8.20;60.10;;;;;;4991627;28;20422;-57
2022/12/28 02:16:37;;;;;;;10.93;4.03;;;8.40;59.50;;;;;;4991776;28;20470;-57
2022/12/28 02:19:05;;;;;;;6.43;3.60;;;8.50;59.30;;;;;;4990351;28;20480;-57
2022/12/28 02:22:08;;;;;;;5.63;3.93;;;8.40;59.10;;;;;;4991844;28;20639;-57
2022/12/28 02:24:33;;;;;;;5.80;3.70;;;8.60;59.10;;;;;;4991209;28;20837;-57
2022/12/28 02:27:05;;;;;;;4.40;3.10;;;8.80;58.90;;;;;;4991690;28;20492;-57
2022/12/28 02:29:42;;;;;;;9.07;3.57;;;8.80;58.90;;;;;;4991687;28;20195;-57
2022/12/28 02:32:30;;;;;;;4.97;3.17;;;8.70;58.70;;;;;;4991909;28;20425;-57
2022/12/28 02:35:32;;;;;;;5.13;3.27;;;8.70;58.70;;;;;;4991117;28;20520;-57
2022/12/28 02:38:17;;;;;;;3.20;2.90;;;8.70;58.80;;;;;;4991005;28;20441;-57
2022/12/28 02:40:42;;;;;;;5.20;3.47;;;8.80;58.30;;;;;;4994608;28;20449;-57
2022/12/28 02:43:08;;;;;;;5.40;2.80;;;8.70;58.40;;;;;;4994873;28;20472;-57
2022/12/28 02:51:31;;;;;;;4.40;2.83;;;8.90;58.70;;;;;;4995217;28;20492;-57
2022/12/28 02:56:05;;;;;;;3.60;3.17;;;8.90;58.20;;;;;;4994734;28;20508;-57
2022/12/28 02:57:08;;;;;;;2.53;2.23;;;8.60;58.60;;;;;;4994818;28;20449;-57
2022/12/28 02:59:58;;;;;;;4.60;2.53;;;8.30;59.40;;;;;;4995177;28;20887;-57
2022/12/28 03:02:42;;;;;;;3.40;2.77;;;8.30;59.80;;;;;;4995045;28;20429;-57
2022/12/28 03:08:37;;;;;;;4.10;2.73;;;8.40;59.60;;;;;;4994763;28;20492;-57
2022/12/28 03:11:11;;;;;;;3.80;2.63;;;8.50;59.50;;;;;;4993326;28;20429;-57
2022/12/28 03:13:43;;;;;;;4.37;2.27;;;8.70;59.20;;;;;;4994280;28;20422;-57
2022/12/28 03:16:21;;;;;;;3.10;2.40;;;8.50;59.10;;;;;;4994556;28;20442;-57
2022/12/28 03:33:03;;;;;;;2.93;1.70;;;9.00;58.80;;;;;;4974813;28;20429;-57
2022/12/28 03:35:48;;;;;;;3.20;2.60;;;9.00;58.50;;;;;;4974966;28;20426;-57
2022/12/28 03:38:26;;;;;;;3.17;2.17;;;9.10;58.70;;;;;;4987984;28;20532;-57
2022/12/28 03:40:59;;;;;;;2.50;1.80;;;9.20;58.40;;;;;;4994218;28;20508;-57
2022/12/28 03:43:44;;;;;;;2.83;2.27;;;9.30;57.80;;;;;;4993859;28;20453;-57
2022/12/28 03:46:23;;;;;;;3.67;2.30;;;9.30;57.30;;;;;;4994169;28;20956;-57
2022/12/28 03:48:50;;;;;;;5.93;2.37;;;9.40;57.20;;;;;;4994072;28;20457;-57
2022/12/28 03:51:20;;;;;;;2.80;2.10;;;9.30;57.40;;;;;;4993206;28;20887;-57
2022/12/28 03:53:47;;;;;;;2.07;1.80;;;9.30;57.40;;;;;;4993901;28;20445;-57
2022/12/28 03:56:15;;;;;;;2.57;2.37;;;9.40;57.60;;;;;;4993962;28;20476;-57
2022/12/28 03:58:41;;;;;;;3.87;2.40;;;9.60;57.10;;;;;;4994153;28;20440;-57
2022/12/28 04:01:07;;;;;;;3.20;2.90;;;9.60;56.90;;;;;;4993867;28;20541;-58
2022/12/28 04:03:33;;;;;;;2.40;2.00;;;9.80;56.70;;;;;;4991845;28;20434;-57
2022/12/28 04:05:59;;;;;;;2.07;1.87;;;9.90;56.30;;;;;;4993698;28;20957;-57
2022/12/28 04:08:25;;;;;;;3.13;2.50;;;10.00;55.20;;;;;;4993578;28;20578;-57
2022/12/28 04:10:51;;;;;;;3.00;1.50;;;10.10;55.10;;;;;;4993726;28;20195;-57
2022/12/28 04:13:16;;;;;;;2.40;1.87;;;10.00;55.00;;;;;;4993233;28;20453;-57
2022/12/28 04:15:42;;;;;;;4.83;1.93;;;9.70;56.30;;;;;;4993625;28;20281;-58
2022/12/28 04:18:07;;;;;;;4.80;2.30;;;9.80;56.30;;;;;;4993498;28;20297;-57
2022/12/28 04:20:33;;;;;;;3.90;2.00;;;9.90;56.30;;;;;;4993580;28;20207;-57
2022/12/28 04:22:59;;;;;;;2.23;2.03;;;9.90;56.20;;;;;;4992982;28;20273;-57
2022/12/28 04:25:24;;;;;;;5.60;2.10;;;9.80;56.40;;;;;;4993237;28;20201;-57
2022/12/28 04:27:50;;;;;;;5.57;1.90;;;9.90;56.40;;;;;;4993625;28;20222;-57
2022/12/28 04:30:16;;;;;;;2.70;1.83;;;9.90;56.40;;;;;;4991794;28;20198;-57
2022/12/28 04:32:41;;;;;;;2.17;1.90;;;10.00;55.50;;;;;;4993157;28;20464;-57
2022/12/28 04:35:07;;;;;;;1.97;1.77;;;10.20;55.30;;;;;;4993210;28;20568;-57
2022/12/28 04:37:36;;;;;;;2.80;2.53;;;10.30;55.10;;;;;;4993081;28;20203;-57
2022/12/28 04:40:02;;;;;;;3.20;1.90;;;10.30;54.90;;;;;;4993094;28;20514;-57
2022/12/28 04:42:27;;;;;;;3.00;2.07;;;10.30;55.00;;;;;;4993028;28;20525;-57
2022/12/28 04:44:53;;;;;;;3.30;1.83;;;10.30;55.00;;;;;;4992937;28;20512;-57
2022/12/28 04:47:19;;;;;;;2.27;2.07;;;10.40;55.10;;;;;;4993007;28;20226;-57
2022/12/28 04:49:44;;;;;;;2.47;1.97;;;10.40;55.00;;;;;;4993253;28;20194;-58
2022/12/28 04:52:10;;;;;;;2.57;2.00;;;10.50;55.20;;;;;;4993119;28;20643;-57
2022/12/28 04:54:35;;;;;;;3.10;2.23;;;10.50;55.10;;;;;;4992770;28;20238;-57
2022/12/28 04:57:01;;;;;;;2.20;1.60;;;10.50;55.10;;;;;;4991305;28;20567;-57
2022/12/28 04:59:26;;;;;;;3.20;1.40;;;10.40;55.50;;;;;;4993074;28;20286;-57
2022/12/28 05:01:52;;;;;;;2.93;2.00;;;10.30;55.80;;;;;;4992674;28;20198;-57
2022/12/28 05:04:17;;;;;;;2.07;1.83;;;10.40;55.60;;;;;;4992501;28;20198;-57
2022/12/28 05:06:43;;;;;;;2.40;1.77;;;10.40;55.20;;;;;;4992737;28;20230;-57
2022/12/28 05:09:09;;;;;;;1.57;1.47;;;10.50;55.10;;;;;;4992793;28;20194;-57
2022/12/28 05:11:34;;;;;;;2.83;1.67;;;10.40;55.10;;;;;;4992630;28;20643;-57
2022/12/28 05:14:00;;;;;;;2.17;2.00;;;10.50;55.40;;;;;;4992088;28;20529;-57
2022/12/28 05:16:27;;;;;;;2.77;2.00;;;10.50;55.40;;;;;;4992280;28;20238;-57
2022/12/28 05:18:55;;;;;;;1.83;1.73;;;10.40;55.30;;;;;;4992216;28;20190;-57
2022/12/28 05:21:23;;;;;;;2.90;2.37;;;10.40;55.50;;;;;;4992185;28;20441;-57
2022/12/28 05:23:50;;;;;;;2.07;1.97;;;10.50;55.50;;;;;;4990569;28;20422;-57
2022/12/28 05:26:18;;;;;;;2.70;2.20;;;10.60;55.40;;;;;;4992014;28;20486;-57
2022/12/28 05:28:44;;;;;;;2.93;2.03;;;10.60;55.40;;;;;;4992449;28;20461;-57
2022/12/28 05:31:12;;;;;;;2.03;1.83;;;10.60;55.30;;;;;;4992200;28;20430;-57
2022/12/28 05:33:38;;;;;;;4.87;2.30;;;10.60;55.60;;;;;;4991913;28;20458;-57
2022/12/28 05:36:06;;;;;;;2.10;1.60;;;10.50;55.50;;;;;;4991949;28;20488;-57
2022/12/28 05:38:32;;;;;;;3.80;3.40;;;10.60;55.70;;;;;;4992073;28;20434;-57
2022/12/28 05:41:05;;;;;;;5.50;5.00;;;10.60;55.50;;;;;;4992246;28;20811;-57
2022/12/28 05:43:30;;;;;;;3.47;3.17;;;10.70;55.50;;;;;;4991612;28;20476;-57
2022/12/28 05:46:03;;;;;;;4.23;3.03;;;10.80;55.50;;;;;;4991882;28;20425;-57
2022/12/28 05:48:33;;;;;;;2.43;2.23;;;10.80;55.40;;;;;;4992164;28;20201;-57
2022/12/28 05:51:01;;;;;;;4.60;2.70;;;10.80;55.50;;;;;;4990564;28;20437;-57
2022/12/28 05:53:28;;;;;;;3.00;2.27;;;10.80;55.40;;;;;;4991933;28;20430;-57
2022/12/28 05:56:06;;;;;;;4.43;2.60;;;10.80;55.40;;;;;;4991878;28;20467;-57
2022/12/28 05:58:32;;;;;;;6.57;3.73;;;10.80;55.40;;;;;;4992047;28;20433;-57
2022/12/28 06:01:08;;;;;;;4.00;3.10;;;10.80;55.30;;;;;;4991957;28;20430;-57
2022/12/28 06:03:35;;;;;;;3.17;2.20;;;10.80;55.40;;;;;;4991531;28;20480;-58
2022/12/28 06:06:16;;;;;;;2.50;1.93;;;10.80;55.50;;;;;;4991943;28;20953;-57
2022/12/28 06:08:43;;;;;;;2.20;2.00;;;10.80;55.70;;;;;;4991877;28;20549;-57
2022/12/28 06:11:12;;;;;;;1.60;1.50;;;10.70;55.90;;;;;;4992048;28;20430;-57
2022/12/28 06:13:38;;;;;;;6.47;1.70;;;10.70;55.80;;;;;;4991497;28;20441;-57
2022/12/28 06:16:19;;;;;;;2.40;1.47;;;10.80;56.00;;;;;;4993887;28;20823;-57
2022/12/28 06:18:44;;;;;;;1.20;1.10;;;10.70;55.90;;;;;;4995871;28;20573;-57
2022/12/28 06:21:16;;;;;;;2.17;1.33;;;10.80;56.00;;;;;;4995936;28;20426;-57
2022/12/28 06:23:43;;;;;;;1.70;1.13;;;10.70;56.00;;;;;;4995521;28;20195;-57
2022/12/28 06:26:12;;;;;;;1.60;0.87;;;10.80;55.90;;;;;;4995525;28;20528;-57
2022/12/28 06:28:38;;;;;;;1.83;1.10;;;10.80;55.80;;;;;;4995928;28;20473;-57
2022/12/28 06:31:05;;;;;;;1.80;1.20;;;10.90;55.80;;;;;;4995642;28;20492;-57
2022/12/28 06:33:31;;;;;;;1.93;1.10;;;10.90;55.60;;;;;;4995230;28;20425;-57
2022/12/28 06:35:56;;;;;;;1.97;1.00;;;10.90;55.50;;;;;;4995282;28;20521;-57
2022/12/28 06:38:22;;;;;;;2.77;1.80;;;10.90;55.40;;;;;;4995291;28;20516;-57
2022/12/28 06:40:48;;;;;;;1.40;1.30;;;10.80;55.40;;;;;;4995248;28;20194;-57
2022/12/28 06:43:14;;;;;;;1.73;1.40;;;10.80;55.60;;;;;;4993408;28;20218;-57
2022/12/28 06:45:39;;;;;;;2.63;1.37;;;10.90;55.40;;;;;;4995501;28;20587;-57
2022/12/28 06:48:05;;;;;;;3.13;1.73;;;11.00;55.30;;;;;;4995238;28;20520;-57
2022/12/28 06:50:30;;;;;;;1.37;1.03;;;11.00;55.10;;;;;;4995243;28;20560;-57
2022/12/28 06:52:56;;;;;;;1.80;1.40;;;11.10;55.10;;;;;;4994684;28;20198;-57
2022/12/28 06:55:22;;;;;;;2.50;1.30;;;11.10;54.70;;;;;;4995282;28;20205;-57
2022/12/28 06:57:47;;;;;;;1.67;1.40;;;11.00;54.90;;;;;;4995134;28;20195;-57
2022/12/28 07:00:13;;;;;;;5.23;1.83;;;10.80;55.10;;;;;;4995249;28;20656;-57
2022/12/28 07:02:39;;;;;;;2.03;1.20;;;10.80;55.30;;;;;;4995105;28;20217;-57
2022/12/28 07:05:04;;;;;;;3.00;1.50;;;10.90;55.20;;;;;;4994971;28;20422;-57
2022/12/28 07:07:30;;;;;;;1.97;1.27;;;10.80;55.30;;;;;;4975422;28;20223;-57
2022/12/28 07:09:55;;;;;;;1.83;1.20;;;11.00;55.20;;;;;;4973905;28;20218;-58
2022/12/28 07:12:21;;;;;;;1.67;1.07;;;11.10;55.50;;;;;;4975231;28;20191;-57
2022/12/28 07:14:46;;;;;;;5.70;3.10;;;11.10;54.90;;;;;;4974901;28;20234;-57
2022/12/28 07:17:12;;;;;;;1.33;1.23;;;11.10;54.70;;;;;;4975336;28;20306;-57
2022/12/28 07:19:39;;;;;;;1.80;1.30;;;11.10;54.70;;;;;;5001872;28;20244;-57
2022/12/28 07:22:04;;;;;;;2.00;1.33;;;10.90;54.50;;;;;;4994602;28;20481;-57
2022/12/28 07:24:30;;;;;;;1.83;1.73;;;10.70;55.40;;;;;;4991533;28;20198;-57
2022/12/28 07:26:55;;;;;;;1.37;1.27;;;10.70;55.90;;;;;;4993077;28;20228;-57
2022/12/28 07:29:21;;;;;;;3.93;1.20;;;10.80;55.70;;;;;;4994596;28;20198;-57
2022/12/28 07:31:46;;;;;;;1.50;1.20;;;10.70;55.60;;;;;;4994486;28;20609;-57
2022/12/28 07:34:14;;;;;;;1.27;1.17;;;10.80;55.60;;;;;;4994153;28;20226;-57
2022/12/28 07:36:40;;;;;;;1.50;1.37;;;10.90;55.50;;;;;;4992749;28;20206;-57
2022/12/28 07:39:06;;;;;;;2.53;1.53;;;11.10;55.20;;;;;;4994169;28;20425;-57
2022/12/28 07:41:33;;;;;;;1.57;1.47;;;11.30;54.90;;;;;;4994175;28;20191;-57
2022/12/28 07:43:59;;;;;;;1.80;1.47;;;11.40;54.60;;;;;;4994027;28;20187;-57
2022/12/28 07:46:28;;;;;;;2.47;1.60;;;11.40;54.50;;;;;;4994197;28;20481;-57
2022/12/28 07:48:55;;;;;;;4.23;1.83;;;11.40;54.60;;;;;;4994179;28;20430;-57
2022/12/28 07:51:29;;;;;;;2.57;1.90;;;11.40;54.70;;;;;;4994284;28;20436;-57
2022/12/28 07:53:57;;;;;;;3.00;2.20;;;11.50;54.70;;;;;;4993833;28;20859;-57
2022/12/28 07:56:24;;;;;;;2.40;2.10;;;11.30;54.30;;;;;;4994165;28;20441;-57
2022/12/28 07:58:52;;;;;;;2.20;2.00;;;11.30;54.90;;;;;;4993895;28;20429;-57
2022/12/28 08:01:20;;;;;;;2.10;2.00;;;11.20;54.90;;;;;;4994137;28;20430;-57
2022/12/28 08:03:46;;;;;;;2.83;2.30;;;11.10;55.10;;;;;;4991787;28;20445;-57
2022/12/28 08:06:18;;;;;;;2.40;2.13;;;10.90;55.50;;;;;;4993774;28;20485;-57
2022/12/28 08:08:45;;;;;;;4.40;2.57;;;10.80;55.80;;;;;;4993726;28;20198;-57
2022/12/28 08:11:16;;;;;;;2.40;2.10;;;10.60;56.10;;;;;;4993837;28;20430;-57
2022/12/28 08:13:44;;;;;;;3.00;2.30;;;10.50;56.60;;;;;;4993542;28;20445;-57
2022/12/28 08:16:12;;;;;;;2.10;1.83;;;10.80;56.40;;;;;;4993873;28;20947;-57
2022/12/28 08:18:39;;;;;;;2.03;1.90;;;11.00;55.90;;;;;;4993709;28;20430;-57
2022/12/28 08:21:16;;;;;;;2.80;2.60;;;10.90;55.50;;;;;;4993712;28;20434;-57
2022/12/28 08:23:42;;;;;;;2.67;2.00;;;10.80;56.00;;;;;;4993230;28;20430;-57
2022/12/28 08:26:16;;;;;;;4.00;2.53;;;10.90;56.20;;;;;;4993417;28;20486;-57
2022/12/28 08:28:44;;;;;;;2.40;2.20;;;10.70;56.30;;;;;;4992019;28;20189;-57
2022/12/28 08:31:12;;;;;;;3.20;2.60;;;10.60;57.00;;;;;;4993461;28;20436;-57
2022/12/28 08:33:38;;;;;;;3.40;2.57;;;10.30;57.20;;;;;;4993182;28;20422;-57
2022/12/28 08:36:05;;;;;;;5.60;3.70;;;10.50;57.30;;;;;;4993222;28;20476;-57
2022/12/28 08:38:31;;;;;;;4.60;3.23;;;10.80;56.70;;;;;;4992999;28;20194;-57
2022/12/28 08:40:59;;;;;;;4.57;3.30;;;10.90;56.40;;;;;;4993072;28;20484;-57
2022/12/28 08:43:27;;;;;;;4.90;3.13;;;11.00;56.30;;;;;;4992932;28;20422;-57
2022/12/28 08:46:04;;;;;;;3.20;2.90;;;10.90;56.20;;;;;;4993074;28;20422;-57
2022/12/28 08:48:30;;;;;;;4.33;3.23;;;10.60;56.70;;;;;;4993075;28;20436;-57
2022/12/28 08:51:01;;;;;;;2.93;2.30;;;10.70;57.00;;;;;;4992990;28;20437;-57
2022/12/28 08:53:26;;;;;;;2.20;2.00;;;10.70;56.50;;;;;;4992648;28;20457;-57
2022/12/28 08:55:52;;;;;;;3.37;2.20;;;10.60;56.70;;;;;;4991359;28;20457;-57
2022/12/28 08:58:17;;;;;;;2.13;1.93;;;10.50;57.10;;;;;;4992908;28;20202;-57
2022/12/28 09:00:43;;;;;;;3.00;2.60;;;10.60;57.00;;;;;;4992942;28;20702;-57
2022/12/28 09:03:09;;;;;;;3.07;1.97;;;10.60;56.90;;;;;;4992609;28;20202;-57
2022/12/28 09:05:38;;;;;;;2.80;2.10;;;10.70;57.10;;;;;;4992639;28;20281;-57
2022/12/28 09:08:04;;;;;;;1.97;1.87;;;10.80;56.90;;;;;;4992626;28;20246;-57
2022/12/28 09:10:30;;;;;;;2.60;2.20;;;10.80;57.10;;;;;;4992524;28;20434;-57
2022/12/28 09:12:56;;;;;;;2.73;1.73;;;10.70;57.50;;;;;;4992293;28;20422;-57
2022/12/28 09:15:21;;;;;;;3.00;2.00;;;10.60;57.60;;;;;;4992599;28;20214;-57
2022/12/28 09:17:47;;;;;;;3.00;2.37;;;10.90;56.90;;;;;;4992461;28;20307;-57
2022/12/28 09:20:13;;;;;;;3.80;1.90;;;10.70;56.60;;;;;;4992273;28;20195;-57
2022/12/28 09:22:38;;;;;;;2.03;1.83;;;10.60;57.40;;;;;;4990571;28;20199;-57
2022/12/28 09:25:04;;;;;;;2.50;1.90;;;10.70;57.20;;;;;;4992189;28;20277;-57
2022/12/28 09:27:30;;;;;;;2.47;2.00;;;10.90;57.10;;;;;;4992342;28;20611;-57
2022/12/28 09:29:55;;;;;;;4.10;2.17;;;11.10;56.50;;;;;;4992514;28;20209;-57
2022/12/28 09:32:21;;;;;;;2.13;1.93;;;11.00;56.40;;;;;;4991929;28;20202;-57
2022/12/28 09:34:47;;;;;;;3.00;2.00;;;11.00;56.80;;;;;;4992284;28;20190;-57
2022/12/28 09:37:12;;;;;;;1.90;1.80;;;11.20;56.50;;;;;;4992390;28;20200;-57
2022/12/28 09:39:38;;;;;;;2.57;1.70;;;11.70;56.10;;;;;;4992239;28;20194;-57
2022/12/28 09:42:07;;;;;;;2.33;1.50;;;11.70;55.20;;;;;;4992207;28;20639;-57
2022/12/28 09:44:48;;;;;;;3.00;1.80;;;11.70;55.20;;;;;;4991808;28;20437;-57
2022/12/28 09:47:16;;;;;;;2.90;2.03;;;11.70;55.20;;;;;;4990847;28;21015;-57
2022/12/28 09:49:57;;;;;;;2.27;2.07;;;11.90;55.30;;;;;;4989849;28;20450;-57
2022/12/28 09:52:32;;;;;;;1.90;1.60;;;12.10;54.80;;;;;;4991506;28;20441;-57
2022/12/28 09:55:19;;;;;;;2.50;2.00;;;12.40;53.90;;;;;;4992070;28;20457;-57
2022/12/28 09:57:49;;;;;;;1.90;1.70;;;12.50;53.40;;;;;;4991911;28;20421;-57
2022/12/28 10:00:18;;;;;;;3.40;1.50;;;12.80;53.20;;;;;;4991982;28;20441;-57
2022/12/28 10:02:54;;;;;;;3.23;1.63;;;12.90;52.20;;;;;;4991590;28;20425;-58
2022/12/28 10:05:21;;;;;;;1.67;1.40;;;13.00;51.90;;;;;;4991832;28;20512;-57
2022/12/28 10:07:46;;;;;;;1.40;1.30;;;13.10;51.70;;;;;;4991881;28;20877;-57
2022/12/28 10:10:16;;;;;;;1.47;1.37;;;13.30;51.60;;;;;;4991870;28;20418;-57
2022/12/28 10:12:42;;;;;;;1.60;1.50;;;13.30;51.00;;;;;;4991708;28;20198;-57
2022/12/28 10:15:12;;;;;;;1.57;1.47;;;13.40;51.00;;;;;;4990473;28;20430;-57
2022/12/28 10:17:38;;;;;;;2.10;1.77;;;13.50;50.90;;;;;;4991997;28;20484;-57
2022/12/28 10:20:06;;;;;;;3.73;1.60;;;13.60;50.90;;;;;;4991622;28;20561;-57
2022/12/28 10:22:38;;;;;;;2.07;1.77;;;13.60;50.50;;;;;;4991357;28;20433;-57
2022/12/28 10:25:16;;;;;;;1.50;1.40;;;13.70;50.60;;;;;;4991559;28;20536;-57
2022/12/28 10:27:42;;;;;;;1.77;1.43;;;13.60;50.70;;;;;;4991893;28;20477;-57
2022/12/28 10:30:25;;;;;;;1.63;1.53;;;13.40;50.40;;;;;;4991762;28;20433;-57
2022/12/28 10:32:52;;;;;;;2.37;1.67;;;13.20;51.60;;;;;;4991267;28;20442;-57
2022/12/28 10:35:27;;;;;;;2.77;1.63;;;13.40;51.00;;;;;;4991662;28;20436;-57
2022/12/28 10:38:06;;;;;;;1.50;1.40;;;13.40;51.20;;;;;;4991584;28;20444;-57
2022/12/28 10:40:38;;;;;;;2.17;1.60;;;13.30;51.10;;;;;;4991099;28;20474;-57
2022/12/28 10:43:04;;;;;;;1.70;1.37;;;13.20;51.50;;;;;;4990436;28;20445;-58
2022/12/28 10:45:37;;;;;;;5.80;1.63;;;13.30;51.60;;;;;;4991693;28;20513;-57
2022/12/28 10:48:09;;;;;;;1.70;1.60;;;13.60;51.20;;;;;;4991189;28;20503;-58
2022/12/28 10:51:11;;;;;;;3.00;1.50;;;13.70;50.70;;;;;;4991418;28;20441;-57
2022/12/28 10:53:45;;;;;;;1.80;1.33;;;13.90;50.80;;;;;;4990934;28;20869;-57
2022/12/28 10:56:11;;;;;;;5.23;1.73;;;13.70;50.20;;;;;;4991617;28;20440;-57
2022/12/28 10:58:37;;;;;;;2.87;2.00;;;13.80;50.50;;;;;;4991523;28;20910;-57
2022/12/28 11:01:15;;;;;;;2.33;2.13;;;13.80;50.30;;;;;;4993499;28;20214;-57
2022/12/28 11:04:05;;;;;;;2.10;1.90;;;14.00;50.40;;;;;;4994686;28;20508;-57
2022/12/28 11:06:49;;;;;;;2.37;1.73;;;13.90;50.40;;;;;;4994282;28;20584;-58
2022/12/28 11:09:19;;;;;;;1.90;1.70;;;14.10;50.50;;;;;;4993270;28;20433;-57
2022/12/28 11:11:47;;;;;;;3.43;1.93;;;13.90;50.00;;;;;;4994980;28;20813;-58
2022/12/28 11:14:32;;;;;;;1.93;1.77;;;14.10;50.30;;;;;;4994506;28;20452;-58
2022/12/28 11:17:15;;;;;;;2.87;2.07;;;14.20;50.20;;;;;;4994371;28;20473;-58
2022/12/28 11:19:41;;;;;;;1.93;1.77;;;14.30;50.00;;;;;;4994892;28;20899;-57
2022/12/28 11:22:11;;;;;;;2.20;2.00;;;14.30;50.00;;;;;;4994343;28;20438;-57
2022/12/28 11:24:39;;;;;;;3.13;1.90;;;14.30;50.00;;;;;;4994565;28;20273;-57
2022/12/28 11:27:08;;;;;;;2.63;2.10;;;14.30;50.10;;;;;;4994491;28;20482;-57
2022/12/28 11:29:34;;;;;;;2.67;2.20;;;14.50;50.30;;;;;;4994590;28;20429;-57
2022/12/28 11:32:10;;;;;;;2.10;1.80;;;14.50;50.10;;;;;;4994413;28;20460;-57
2022/12/28 11:34:37;;;;;;;2.80;2.20;;;14.60;49.80;;;;;;4992954;28;20633;-57
2022/12/28 11:37:02;;;;;;;2.63;1.90;;;14.80;49.80;;;;;;4994320;28;20533;-58
2022/12/28 11:39:31;;;;;;;3.70;2.23;;;14.80;49.40;;;;;;4994341;28;20521;-58
2022/12/28 11:42:00;;;;;;;2.17;1.97;;;14.80;48.90;;;;;;4994305;28;20195;-58
2022/12/28 11:44:29;;;;;;;2.77;2.47;;;14.80;49.40;;;;;;4994150;28;20429;-58
2022/12/28 11:47:18;;;;;;;3.03;2.50;;;14.90;49.10;;;;;;4994208;28;20483;-58
2022/12/28 11:49:45;;;;;;;5.93;2.67;;;14.80;49.40;;;;;;4994203;28;20434;-58
2022/12/28 11:52:13;;;;;;;5.93;2.17;;;14.70;49.40;;;;;;4993826;28;20477;-58
2022/12/28 11:54:51;;;;;;;2.67;2.43;;;14.70;49.80;;;;;;4994301;28;20422;-58
2022/12/28 11:57:33;;;;;;;2.23;2.03;;;14.70;50.50;;;;;;4994036;28;20439;-57
2022/12/28 12:00:20;;;;;;;2.63;2.37;;;14.80;49.90;;;;;;4994115;28;20445;-58
2022/12/28 12:02:57;;;;;;;2.60;2.40;;;14.90;50.00;;;;;;4993504;28;20446;-58
2022/12/28 12:05:37;;;;;;;2.80;2.30;;;15.00;50.20;;;;;;4993891;28;20446;-58
2022/12/28 12:08:09;;;;;;;2.07;1.80;;;15.10;49.70;;;;;;4993942;28;20496;-57
2022/12/28 12:10:35;;;;;;;3.13;2.07;;;15.20;49.40;;;;;;4993689;28;20937;-58
2022/12/28 12:13:22;;;;;;;2.40;2.17;;;15.20;49.20;;;;;;4992907;28;20430;-58
2022/12/28 12:15:49;;;;;;;3.27;2.10;;;15.20;49.00;;;;;;4993549;28;20434;-58
2022/12/28 12:18:24;;;;;;;4.17;2.07;;;15.40;49.00;;;;;;4993197;28;20823;-57
2022/12/28 12:20:52;;;;;;;2.77;2.20;;;15.50;49.10;;;;;;4993690;28;20432;-58
2022/12/28 12:23:28;;;;;;;2.60;1.80;;;15.70;48.80;;;;;;4993195;28;20568;-58
2022/12/28 12:25:57;;;;;;;3.67;2.63;;;15.70;48.10;;;;;;4993212;28;20451;-58
2022/12/28 12:28:41;;;;;;;2.20;2.00;;;15.70;47.90;;;;;;4992049;28;20777;-58
2022/12/28 12:31:11;;;;;;;5.67;2.70;;;15.90;48.00;;;;;;4993293;28;20821;-58
2022/12/28 12:33:43;;;;;;;2.63;2.17;;;15.90;47.90;;;;;;4993138;28;20430;-58
2022/12/28 12:36:33;;;;;;;2.20;2.00;;;16.10;47.70;;;;;;4993531;28;20426;-58
2022/12/28 12:39:22;;;;;;;3.70;2.20;;;16.10;47.10;;;;;;4993281;28;20491;-58
2022/12/28 12:42:17;;;;;;;2.53;1.97;;;16.00;47.30;;;;;;4993158;28;20933;-58
2022/12/28 12:45:11;;;;;;;2.63;1.90;;;16.10;47.10;;;;;;4993002;28;20492;-58
2022/12/28 12:48:00;;;;;;;2.40;1.90;;;15.90;47.10;;;;;;4992922;28;20496;-58
2022/12/28 12:50:59;;;;;;;2.73;2.50;;;15.80;47.40;;;;;;4993305;28;20836;-58
2022/12/28 12:53:46;;;;;;;2.10;1.80;;;15.70;47.50;;;;;;4990848;28;21174;-58
2022/12/28 12:56:59;;;;;;;2.40;2.10;;;15.70;47.60;;;;;;4993018;28;20426;-58
2022/12/28 12:59:57;;;;;;;2.87;1.87;;;15.60;47.50;;;;;;4932641;29;20440;-58
2022/12/28 13:02:39;;;;;;;2.50;1.80;;;15.30;47.70;;;;;;4992395;28;20438;-58
2022/12/28 13:05:05;;;;;;;2.13;1.80;;;15.30;48.30;;;;;;4991602;28;20499;-58
2022/12/28 13:07:32;;;;;;;2.13;1.80;;;15.30;48.10;;;;;;4992834;28;20489;-58
2022/12/28 13:10:02;;;;;;;3.80;2.30;;;15.10;48.40;;;;;;4992739;28;20508;-58
2022/12/28 13:12:28;;;;;;;2.30;1.90;;;15.10;48.70;;;;;;4991181;28;20434;-58
2022/12/28 13:14:58;;;;;;;2.03;1.83;;;15.10;48.80;;;;;;4992582;28;20476;-58
2022/12/28 13:17:25;;;;;;;2.00;1.80;;;15.20;48.60;;;;;;4992556;28;20288;-58
2022/12/28 13:20:05;;;;;;;3.60;1.47;;;15.10;48.40;;;;;;4990912;28;20456;-58
2022/12/28 13:22:32;;;;;;;1.90;1.80;;;15.20;48.60;;;;;;4992207;28;20433;-58
2022/12/28 13:24:58;;;;;;;1.60;1.50;;;15.10;48.20;;;;;;4992126;28;20429;-58
2022/12/28 13:27:34;;;;;;;3.57;2.07;;;15.10;48.50;;;;;;4992278;28;20495;-58
2022/12/28 13:30:01;;;;;;;3.20;1.70;;;15.10;48.70;;;;;;4992177;28;20254;-58